TimeEST,TemperatureF,Dew PointF,Humidity,Sea Level PressureIn,VisibilityMPH,Wind Direction,Wind SpeedMPH,Gust SpeedMPH,PrecipitationIn,Events,Conditions,WindDirDegrees,DateUTC
12:15 AM,59.0,53.6,82,30.09,10.0,East,3.5,-,N/A,,Clear,90,2013-02-21 05:15:00
12:35 AM,59.0,53.6,82,30.08,10.0,East,3.5,-,N/A,,Clear,90,2013-02-21 05:35:00
1:15 AM,59.0,53.6,82,30.07,10.0,Calm,Calm,-,N/A,,Clear,0,2013-02-21 06:15:00
1:35 AM,59.0,53.6,82,30.08,10.0,Calm,Calm,-,N/A,,Clear,0,2013-02-21 06:35:00
1:55 AM,59.0,53.6,82,30.06,10.0,Calm,Calm,-,N/A,,Mostly Cloudy,0,2013-02-21 06:55:00
2:15 AM,59.0,53.6,82,30.06,10.0,Calm,Calm,-,N/A,,Overcast,0,2013-02-21 07:15:00
2:35 AM,60.8,53.6,77,30.06,10.0,NE,4.6,-,N/A,,Overcast,50,2013-02-21 07:35:00
2:55 AM,59.0,53.6,82,30.06,10.0,NE,4.6,-,N/A,,Mostly Cloudy,50,2013-02-21 07:55:00
3:15 AM,59.0,53.6,82,30.05,10.0,ENE,4.6,-,N/A,,Scattered Clouds,60,2013-02-21 08:15:00
3:35 AM,59.0,53.6,82,30.06,10.0,NE,4.6,-,N/A,,Scattered Clouds,40,2013-02-21 08:35:00
3:55 AM,59.0,53.6,82,30.04,10.0,ENE,5.8,-,N/A,,Scattered Clouds,60,2013-02-21 08:55:00
4:15 AM,57.2,53.6,88,30.05,10.0,NE,4.6,-,N/A,,Clear,40,2013-02-21 09:15:00
4:35 AM,57.2,53.6,88,30.05,10.0,ENE,4.6,-,N/A,,Clear,60,2013-02-21 09:35:00
4:55 AM,57.2,53.6,88,30.06,10.0,ENE,4.6,-,N/A,,Clear,60,2013-02-21 09:55:00
5:15 AM,57.2,53.6,88,30.06,10.0,NE,4.6,-,N/A,,Clear,50,2013-02-21 10:15:00
5:35 AM,57.2,53.6,88,30.06,10.0,NE,5.8,-,N/A,,Clear,50,2013-02-21 10:35:00
5:50 AM,57.2,55.4,94,30.06,10.0,ENE,5.8,-,N/A,,Partly Cloudy,60,2013-02-21 10:50:00
6:50 AM,59.0,55.4,88,30.08,10.0,East,4.6,-,N/A,,Scattered Clouds,80,2013-02-21 11:50:00
7:50 AM,60.8,55.4,82,30.10,10.0,NE,3.5,-,N/A,,Mostly Cloudy,40,2013-02-21 12:50:00
8:50 AM,64.4,57.2,77,30.13,10.0,ENE,4.6,-,N/A,,Mostly Cloudy,70,2013-02-21 13:50:00
9:50 AM,71.6,60.8,69,30.13,10.0,ESE,6.9,-,N/A,,Mostly Cloudy,110,2013-02-21 14:50:00
10:50 AM,73.4,60.8,65,30.12,12.0,ESE,8.1,-,N/A,,Mostly Cloudy,120,2013-02-21 15:50:00
11:50 AM,77.0,59.0,54,30.11,12.0,SSE,5.8,-,N/A,,Mostly Cloudy,150,2013-02-21 16:50:00
12:50 PM,78.8,59.0,51,30.08,12.0,ESE,4.6,-,N/A,,Mostly Cloudy,110,2013-02-21 17:50:00
1:50 PM,80.6,55.4,42,30.05,12.0,SSW,5.8,-,N/A,,Mostly Cloudy,200,2013-02-21 18:50:00
2:51 PM,82.4,53.6,37,30.03,15.0,SSW,5.8,-,N/A,,Mostly Cloudy,200,2013-02-21 19:51:00
3:52 PM,80.6,55.4,42,30.02,15.0,South,6.9,-,N/A,,Scattered Clouds,180,2013-02-21 20:52:00
4:51 PM,82.4,55.4,39,30.01,15.0,South,9.2,-,N/A,,Mostly Cloudy,170,2013-02-21 21:51:00
5:52 PM,78.8,55.4,44,30.01,15.0,SE,6.9,-,N/A,,Mostly Cloudy,140,2013-02-21 22:52:00
6:55 PM,75.2,60.8,61,30.02,15.0,West,9.2,-,N/A,,Mostly Cloudy,270,2013-02-21 23:55:00
7:50 PM,73.4,60.8,65,30.03,15.0,SW,4.6,-,N/A,,Mostly Cloudy,230,2013-02-22 00:50:00
8:53 PM,69.8,60.8,73,30.04,15.0,Calm,Calm,-,N/A,,Mostly Cloudy,0,2013-02-22 01:53:00
9:52 PM,66.2,60.8,83,30.05,15.0,Calm,Calm,-,N/A,,Mostly Cloudy,0,2013-02-22 02:52:00
9:55 PM,66.2,60.8,83,30.05,10.0,Calm,Calm,-,N/A,,Clear,0,2013-02-22 02:55:00
10:15 PM,64.4,60.8,88,30.06,10.0,ESE,6.9,-,N/A,,Scattered Clouds,110,2013-02-22 03:15:00
10:35 PM,68.0,60.8,78,30.06,10.0,East,3.5,-,N/A,,Mostly Cloudy,90,2013-02-22 03:35:00
10:55 PM,68.0,60.8,78,30.05,10.0,Calm,Calm,-,N/A,,Mostly Cloudy,0,2013-02-22 03:55:00
11:15 PM,68.0,60.8,78,30.06,10.0,Calm,Calm,-,N/A,,Overcast,0,2013-02-22 04:15:00
11:35 PM,66.2,60.8,83,30.06,10.0,Calm,Calm,-,N/A,,Overcast,0,2013-02-22 04:35:00
11:55 PM,68.0,60.8,78,30.05,10.0,Calm,Calm,-,N/A,,Overcast,0,2013-02-22 04:55:00